Time;durP1;ratioP1;P1;durP2;ratioP2;P2;SDS_P1;SDS_P2;PMS_P1;PMS_P2;Temp;Humidity;BMP_temperature;BMP_pressure;BME280_temperature;BME280_humidity;BME280_pressure;Samples;Min_cycle;Max_cycle;Signal;HPM_P1;HPM_P2
2023/07/20 00:02:15;;;;;;;0.10;0.10;;;19.90;99.90;;;;;;5021760;28;20210;-83
2023/07/20 00:04:40;;;;;;;0.10;0.10;;;19.90;99.90;;;;;;5023973;28;20195;-80
2023/07/20 00:07:06;;;;;;;0.10;0.10;;;19.80;99.90;;;;;;5023638;28;20202;-80
2023/07/20 00:09:31;;;;;;;0.10;0.10;;;19.70;99.90;;;;;;5023727;28;21125;-82
2023/07/20 00:11:57;;;;;;;0.10;0.10;;;19.80;99.90;;;;;;5017539;28;20216;-81
2023/07/20 00:14:23;;;;;;;0.10;0.10;;;19.70;99.90;;;;;;5023793;28;20182;-82
2023/07/20 00:16:55;;;;;;;0.10;0.10;;;19.70;99.90;;;;;;5021554;28;20212;-81
2023/07/20 00:19:25;;;;;;;0.10;0.10;;;19.70;99.90;;;;;;5022087;28;20186;-83
2023/07/20 00:21:52;;;;;;;0.10;0.10;;;19.70;99.90;;;;;;5020474;28;20324;-82
2023/07/20 00:24:17;;;;;;;0.10;0.10;;;19.70;99.90;;;;;;5025073;28;20195;-81
2023/07/20 00:26:44;;;;;;;0.10;0.10;;;19.60;99.90;;;;;;5021584;28;20229;-82
2023/07/20 00:29:09;;;;;;;0.10;0.10;;;19.60;99.90;;;;;;5020260;28;21224;-83
2023/07/20 00:31:36;;;;;;;0.10;0.10;;;19.60;99.90;;;;;;5020089;28;20292;-81
2023/07/20 00:34:05;;;;;;;0.10;0.10;;;19.50;99.90;;;;;;5022227;28;20204;-81
2023/07/20 00:36:31;;;;;;;0.10;0.10;;;19.40;99.90;;;;;;5021775;28;20202;-81
2023/07/20 00:38:57;;;;;;;0.10;0.10;;;19.30;99.90;;;;;;5031293;28;20535;-82
2023/07/20 00:41:22;;;;;;;0.10;0.10;;;19.30;99.90;;;;;;5020451;28;20209;-81
2023/07/20 00:43:48;;;;;;;0.10;0.10;;;19.30;99.90;;;;;;5028608;28;20208;-80
2023/07/20 00:46:14;;;;;;;0.10;0.10;;;19.30;99.90;;;;;;5024788;28;20261;-80
2023/07/20 00:48:41;;;;;;;0.10;0.10;;;19.30;99.90;;;;;;5017701;28;20207;-80
2023/07/20 00:51:07;;;;;;;0.10;0.10;;;19.20;99.90;;;;;;5029896;28;20203;-80
2023/07/20 00:53:32;;;;;;;0.10;0.10;;;19.10;99.90;;;;;;5031494;28;20269;-80
2023/07/20 00:55:58;;;;;;;0.10;0.10;;;19.00;99.90;;;;;;5025925;28;20237;-80
2023/07/20 00:58:24;;;;;;;0.10;0.10;;;19.00;99.90;;;;;;5024545;28;20245;-80
2023/07/20 01:00:50;;;;;;;0.10;0.10;;;18.90;99.90;;;;;;5025623;28;20213;-81
2023/07/20 01:03:15;;;;;;;0.10;0.10;;;18.80;99.90;;;;;;5018148;28;20179;-80
2023/07/20 01:06:08;;;;;;;0.10;0.10;;;18.70;99.90;;;;;;5021826;28;20664;-80
2023/07/20 01:08:55;;;;;;;0.10;0.10;;;18.80;99.90;;;;;;5025940;28;20245;-80
2023/07/20 01:11:43;;;;;;;0.10;0.10;;;18.90;99.90;;;;;;5023249;28;20202;-80
2023/07/20 01:14:10;;;;;;;0.10;0.10;;;18.80;99.90;;;;;;5023672;28;20182;-81
2023/07/20 01:16:35;;;;;;;0.10;0.10;;;18.80;99.90;;;;;;5020781;28;20185;-81
2023/07/20 01:19:01;;;;;;;0.10;0.10;;;18.80;99.90;;;;;;5018460;28;20536;-80
2023/07/20 01:21:34;;;;;;;0.10;0.10;;;18.80;99.90;;;;;;5026271;28;20848;-80
2023/07/20 01:24:17;;;;;;;0.10;0.10;;;18.80;99.90;;;;;;5024495;28;20179;-80
2023/07/20 01:27:11;;;;;;;0.10;0.10;;;18.80;99.90;;;;;;5037869;28;20245;-80
2023/07/20 01:30:07;;;;;;;0.10;0.10;;;18.80;99.90;;;;;;5017147;28;20206;-80
2023/07/20 01:32:34;;;;;;;0.10;0.10;;;18.80;99.90;;;;;;5021648;28;20185;-82
2023/07/20 01:35:02;;;;;;;0.10;0.10;;;18.80;99.90;;;;;;5027241;28;20188;-81
2023/07/20 01:37:30;;;;;;;0.10;0.10;;;18.70;99.90;;;;;;5032972;28;20179;-80
2023/07/20 01:39:56;;;;;;;0.10;0.10;;;18.70;99.90;;;;;;5032543;28;20720;-81
2023/07/20 01:42:24;;;;;;;0.10;0.10;;;18.60;99.90;;;;;;5032179;28;20208;-80
2023/07/20 01:44:53;;;;;;;0.00;0.00;;;18.50;99.90;;;;;;5028930;28;20200;-80
2023/07/20 01:47:19;;;;;;;0.10;0.10;;;18.60;99.90;;;;;;5023347;28;20200;-80
2023/07/20 01:49:44;;;;;;;0.10;0.10;;;18.60;99.90;;;;;;5024924;28;20333;-80
2023/07/20 01:52:10;;;;;;;0.10;0.10;;;18.60;99.90;;;;;;5030830;28;20206;-80
2023/07/20 01:54:36;;;;;;;0.10;0.10;;;18.60;99.90;;;;;;5019351;28;20189;-80
2023/07/20 01:57:02;;;;;;;0.10;0.10;;;18.50;99.90;;;;;;5026308;28;20269;-80
2023/07/20 01:59:27;;;;;;;0.10;0.10;;;18.50;99.90;;;;;;5028027;28;20247;-80
2023/07/20 02:01:53;;;;;;;0.10;0.10;;;18.60;99.90;;;;;;5025638;28;20245;-80
2023/07/20 02:04:18;;;;;;;0.10;0.10;;;18.50;99.90;;;;;;5026485;28;20608;-80
2023/07/20 02:06:44;;;;;;;0.10;0.10;;;18.50;99.90;;;;;;5027376;28;20201;-80
2023/07/20 02:09:09;;;;;;;0.10;0.10;;;18.50;99.90;;;;;;5031942;28;20287;-80
2023/07/20 02:11:35;;;;;;;0.10;0.10;;;18.60;99.90;;;;;;5027921;28;20243;-80
2023/07/20 02:14:00;;;;;;;0.10;0.10;;;18.50;99.90;;;;;;5028303;28;20233;-80
2023/07/20 02:16:26;;;;;;;0.10;0.10;;;18.50;99.90;;;;;;5030124;28;20726;-81
2023/07/20 02:18:52;;;;;;;0.10;0.10;;;18.50;99.90;;;;;;5029824;28;20210;-80
2023/07/20 02:21:18;;;;;;;0.10;0.10;;;18.50;99.90;;;;;;5031336;28;20691;-80
2023/07/20 02:23:43;;;;;;;0.10;0.10;;;18.50;99.90;;;;;;5028658;28;20190;-80
2023/07/20 02:26:09;;;;;;;0.10;0.10;;;18.50;99.90;;;;;;5028728;28;20182;-80
2023/07/20 02:28:34;;;;;;;0.10;0.10;;;18.50;99.90;;;;;;5024705;28;20700;-80
2023/07/20 02:31:00;;;;;;;0.10;0.10;;;18.50;99.90;;;;;;5028076;28;20198;-81
2023/07/20 02:33:26;;;;;;;0.10;0.10;;;18.40;99.90;;;;;;5023851;28;20178;-80
2023/07/20 02:35:52;;;;;;;0.10;0.10;;;18.30;99.90;;;;;;5029609;28;20261;-80
2023/07/20 02:38:17;;;;;;;0.10;0.10;;;18.30;99.90;;;;;;5025223;28;20186;-80
2023/07/20 02:40:43;;;;;;;0.10;0.10;;;18.30;99.90;;;;;;5030043;28;20212;-80
2023/07/20 02:43:09;;;;;;;0.10;0.10;;;18.20;99.90;;;;;;5029689;28;20191;-81
2023/07/20 02:45:35;;;;;;;0.10;0.10;;;18.20;99.90;;;;;;5029504;28;20233;-81
2023/07/20 02:48:00;;;;;;;0.10;0.10;;;18.20;99.90;;;;;;5024444;28;20275;-80
2023/07/20 02:50:26;;;;;;;0.10;0.10;;;18.10;99.90;;;;;;5023798;28;21272;-80
2023/07/20 02:52:52;;;;;;;0.10;0.10;;;18.10;99.90;;;;;;5024903;28;20188;-80
2023/07/20 02:55:17;;;;;;;0.10;0.10;;;18.10;99.90;;;;;;5023109;28;20277;-81
2023/07/20 02:57:43;;;;;;;0.10;0.10;;;18.10;99.90;;;;;;5024747;28;20265;-80
2023/07/20 03:00:09;;;;;;;0.10;0.10;;;18.10;99.90;;;;;;5026837;28;20209;-80
2023/07/20 03:02:34;;;;;;;0.10;0.10;;;18.10;99.90;;;;;;5024098;28;20191;-80
2023/07/20 03:05:02;;;;;;;0.10;0.10;;;18.10;99.90;;;;;;5023378;28;21116;-80
2023/07/20 03:07:28;;;;;;;0.10;0.10;;;18.00;99.90;;;;;;5029819;28;20707;-81
2023/07/20 03:09:55;;;;;;;0.10;0.10;;;18.00;99.90;;;;;;5029346;28;20683;-80
2023/07/20 03:12:20;;;;;;;0.10;0.10;;;17.90;99.90;;;;;;5024399;28;20201;-80
2023/07/20 03:14:46;;;;;;;0.10;0.10;;;17.90;99.90;;;;;;5029301;28;20179;-80
2023/07/20 03:17:12;;;;;;;0.10;0.10;;;17.90;99.90;;;;;;5026282;28;20265;-80
2023/07/20 03:19:37;;;;;;;0.10;0.10;;;17.90;99.90;;;;;;5029472;28;20178;-80
2023/07/20 03:22:03;;;;;;;0.10;0.10;;;17.90;99.90;;;;;;5032306;28;20280;-80
2023/07/20 03:24:28;;;;;;;0.10;0.10;;;17.90;99.90;;;;;;5023707;28;20217;-80
2023/07/20 03:26:54;;;;;;;0.10;0.10;;;17.90;99.90;;;;;;5022471;28;20619;-80
2023/07/20 03:29:19;;;;;;;0.10;0.10;;;17.80;99.90;;;;;;5029868;28;20202;-80
2023/07/20 03:31:45;;;;;;;0.10;0.10;;;17.90;99.90;;;;;;5033612;28;20203;-81
2023/07/20 03:34:10;;;;;;;0.10;0.10;;;17.90;99.90;;;;;;5026651;28;20245;-80
2023/07/20 03:36:36;;;;;;;0.10;0.10;;;17.90;99.90;;;;;;5025595;28;20191;-80
2023/07/20 03:39:02;;;;;;;0.10;0.10;;;17.90;99.90;;;;;;5026960;28;20190;-80
2023/07/20 03:41:28;;;;;;;0.10;0.10;;;17.90;99.90;;;;;;5027126;28;20264;-80
2023/07/20 03:43:54;;;;;;;0.10;0.10;;;17.90;99.90;;;;;;5021841;28;20553;-80
2023/07/20 03:46:19;;;;;;;0.10;0.10;;;17.80;99.90;;;;;;5027003;28;20189;-80
2023/07/20 03:48:45;;;;;;;0.10;0.10;;;17.70;99.90;;;;;;5026376;28;20209;-80
2023/07/20 03:51:10;;;;;;;0.10;0.10;;;17.60;99.90;;;;;;5026044;28;20329;-80
2023/07/20 03:53:36;;;;;;;0.10;0.10;;;17.60;99.90;;;;;;5030438;28;20179;-80
2023/07/20 03:56:02;;;;;;;0.10;0.10;;;17.60;99.90;;;;;;5025178;28;20181;-80
2023/07/20 03:58:27;;;;;;;0.10;0.10;;;17.60;99.90;;;;;;5025012;28;20186;-80
2023/07/20 04:00:53;;;;;;;0.10;0.10;;;17.60;99.90;;;;;;5024818;28;20219;-80
2023/07/20 04:03:19;;;;;;;0.10;0.10;;;17.80;99.90;;;;;;5022438;28;20184;-80
2023/07/20 04:05:45;;;;;;;0.10;0.10;;;17.80;99.90;;;;;;5021723;28;20289;-80
2023/07/20 04:08:11;;;;;;;0.10;0.10;;;18.00;99.90;;;;;;5023791;28;20636;-80
2023/07/20 04:10:37;;;;;;;0.10;0.10;;;18.00;99.90;;;;;;5028509;28;20220;-80
2023/07/20 04:13:03;;;;;;;0.10;0.10;;;18.10;99.90;;;;;;5019675;28;20178;-80
2023/07/20 04:15:29;;;;;;;0.10;0.10;;;18.00;99.90;;;;;;5021204;28;20166;-80
2023/07/20 04:17:56;;;;;;;0.10;0.10;;;18.10;99.90;;;;;;5027379;28;20184;-80
2023/07/20 04:20:22;;;;;;;0.10;0.10;;;18.10;99.90;;;;;;5022911;28;20180;-80
2023/07/20 04:22:47;;;;;;;0.10;0.10;;;18.30;99.90;;;;;;5024328;28;20198;-80
2023/07/20 04:25:13;;;;;;;0.10;0.10;;;19.00;99.90;;;;;;5021026;28;20525;-81
2023/07/20 04:27:38;;;;;;;0.10;0.10;;;18.80;99.90;;;;;;5025516;28;20699;-81
2023/07/20 04:30:07;;;;;;;0.10;0.10;;;18.70;99.90;;;;;;5024048;28;20212;-80
2023/07/20 04:32:33;;;;;;;0.10;0.10;;;18.60;99.90;;;;;;5018352;28;20649;-80
2023/07/20 04:34:59;;;;;;;0.10;0.10;;;18.70;99.90;;;;;;5024516;28;20870;-80
2023/07/20 04:37:24;;;;;;;0.10;0.10;;;18.60;99.90;;;;;;5026957;28;20241;-81
2023/07/20 04:39:50;;;;;;;0.10;0.10;;;18.70;99.90;;;;;;5029559;28;20257;-80
2023/07/20 04:42:16;;;;;;;0.10;0.10;;;18.70;99.90;;;;;;5018760;28;20208;-80
2023/07/20 04:44:41;;;;;;;0.10;0.10;;;18.80;99.90;;;;;;5022182;28;20584;-80
2023/07/20 04:47:08;;;;;;;0.10;0.10;;;19.00;99.90;;;;;;5019598;28;20191;-80
2023/07/20 04:49:34;;;;;;;0.10;0.10;;;18.90;99.90;;;;;;5021219;28;20289;-80
2023/07/20 04:51:59;;;;;;;0.10;0.10;;;18.90;99.90;;;;;;5023765;28;20290;-80
2023/07/20 04:54:26;;;;;;;0.10;0.10;;;18.90;99.90;;;;;;5022443;28;20183;-80
2023/07/20 04:56:53;;;;;;;0.10;0.10;;;18.90;99.90;;;;;;5017637;28;20180;-80
2023/07/20 04:59:18;;;;;;;0.10;0.10;;;18.90;99.90;;;;;;5024108;28;20191;-82
2023/07/20 05:01:44;;;;;;;0.10;0.10;;;18.90;99.90;;;;;;5024037;28;20714;-81
2023/07/20 05:04:09;;;;;;;0.10;0.10;;;18.80;99.90;;;;;;5022497;28;20191;-82
2023/07/20 05:06:35;;;;;;;0.10;0.10;;;18.70;99.90;;;;;;5027196;28;20207;-81
2023/07/20 05:09:00;;;;;;;0.10;0.10;;;18.60;99.90;;;;;;5033653;28;20218;-81
2023/07/20 05:11:26;;;;;;;0.10;0.10;;;18.60;99.90;;;;;;5024506;28;20568;-81
2023/07/20 05:13:51;;;;;;;0.10;0.10;;;18.50;99.90;;;;;;5025246;28;20188;-81
2023/07/20 05:16:17;;;;;;;0.10;0.10;;;18.50;99.90;;;;;;5027098;28;20401;-81
2023/07/20 05:18:42;;;;;;;0.10;0.10;;;18.50;99.90;;;;;;5028437;28;20515;-81
2023/07/20 05:21:08;;;;;;;0.10;0.10;;;18.60;99.90;;;;;;5026699;28;20799;-81
2023/07/20 05:23:33;;;;;;;0.10;0.10;;;18.60;99.90;;;;;;5027723;28;20188;-81
2023/07/20 05:25:59;;;;;;;0.10;0.10;;;18.70;99.90;;;;;;5026048;28;20183;-81
2023/07/20 05:28:28;;;;;;;0.10;0.10;;;18.70;99.90;;;;;;5022447;28;20260;-82
2023/07/20 05:30:54;;;;;;;0.10;0.10;;;18.70;99.90;;;;;;5028735;28;20214;-81
2023/07/20 05:33:20;;;;;;;0.10;0.10;;;18.70;99.90;;;;;;5024700;28;20272;-81
2023/07/20 05:35:45;;;;;;;0.10;0.10;;;18.70;99.90;;;;;;5025398;28;20596;-81
2023/07/20 05:38:11;;;;;;;0.10;0.10;;;18.80;99.90;;;;;;5028306;28;20228;-81
2023/07/20 05:40:44;;;;;;;0.10;0.10;;;18.80;99.90;;;;;;5020070;28;20210;-81
2023/07/20 05:43:10;;;;;;;0.10;0.10;;;18.80;99.90;;;;;;5025466;28;20193;-80
2023/07/20 05:45:36;;;;;;;0.10;0.10;;;18.80;99.90;;;;;;5023889;28;20186;-80
2023/07/20 05:48:02;;;;;;;0.10;0.10;;;18.90;99.90;;;;;;5026416;28;20191;-80
2023/07/20 05:50:28;;;;;;;0.10;0.10;;;18.90;99.90;;;;;;5022502;28;20367;-80
2023/07/20 05:52:54;;;;;;;0.10;0.10;;;19.00;99.90;;;;;;5025140;28;20283;-81
2023/07/20 05:55:20;;;;;;;0.10;0.10;;;19.20;99.90;;;;;;5024656;28;20244;-81
2023/07/20 05:57:47;;;;;;;0.10;0.10;;;19.20;99.90;;;;;;5022856;28;20190;-81
2023/07/20 06:00:14;;;;;;;0.10;0.10;;;19.20;99.90;;;;;;5022262;28;20197;-80
2023/07/20 06:02:40;;;;;;;0.10;0.10;;;19.30;99.90;;;;;;5023624;28;20634;-82
2023/07/20 06:05:09;;;;;;;0.10;0.10;;;19.40;99.90;;;;;;5023160;28;20264;-81
2023/07/20 06:07:36;;;;;;;0.10;0.10;;;19.60;99.90;;;;;;5028597;28;20195;-81
2023/07/20 06:10:02;;;;;;;0.10;0.10;;;19.80;99.90;;;;;;5024393;28;20305;-81
2023/07/20 06:12:28;;;;;;;0.10;0.10;;;19.90;99.90;;;;;;5023434;28;20756;-81
2023/07/20 06:14:53;;;;;;;0.10;0.10;;;20.00;99.90;;;;;;5027023;28;20197;-81
2023/07/20 06:17:19;;;;;;;0.10;0.10;;;20.00;99.90;;;;;;5025719;28;20653;-81
2023/07/20 06:19:44;;;;;;;0.10;0.10;;;20.20;99.90;;;;;;5033133;28;20186;-80
2023/07/20 06:22:10;;;;;;;0.10;0.10;;;20.20;99.90;;;;;;5023057;28;20264;-80
2023/07/20 06:24:36;;;;;;;0.10;0.10;;;20.10;99.90;;;;;;5023080;28;20186;-80
2023/07/20 06:27:02;;;;;;;0.10;0.10;;;20.10;99.90;;;;;;5021584;28;20187;-81
2023/07/20 06:29:28;;;;;;;0.10;0.10;;;20.30;99.90;;;;;;5021796;28;20203;-81
2023/07/20 06:31:53;;;;;;;0.10;0.10;;;20.40;99.90;;;;;;5021845;28;21124;-80
2023/07/20 06:34:19;;;;;;;0.10;0.10;;;20.40;99.90;;;;;;5020276;28;20236;-80
2023/07/20 06:36:45;;;;;;;0.10;0.10;;;20.60;99.90;;;;;;5023384;28;20235;-81
2023/07/20 06:39:10;;;;;;;0.10;0.10;;;20.80;99.90;;;;;;5025551;28;20182;-81
2023/07/20 06:41:36;;;;;;;0.10;0.10;;;20.90;99.90;;;;;;5023819;28;20653;-81
2023/07/20 06:44:03;;;;;;;0.10;0.10;;;21.00;99.90;;;;;;5022272;28;20201;-81
2023/07/20 06:46:28;;;;;;;0.10;0.10;;;21.00;99.90;;;;;;5022655;28;20182;-81
2023/07/20 06:48:54;;;;;;;0.10;0.10;;;21.10;99.90;;;;;;5024361;28;20210;-81
2023/07/20 06:51:20;;;;;;;0.10;0.10;;;21.20;99.90;;;;;;5023966;28;20202;-81
2023/07/20 06:53:46;;;;;;;0.10;0.10;;;21.40;99.90;;;;;;5029942;28;20182;-80
2023/07/20 06:56:11;;;;;;;0.10;0.10;;;21.40;99.90;;;;;;5029789;28;20216;-81
2023/07/20 06:58:37;;;;;;;0.10;0.10;;;21.50;99.90;;;;;;5030085;28;20178;-81
2023/07/20 07:01:07;;;;;;;0.10;0.10;;;21.90;99.90;;;;;;5023166;28;20198;-81
2023/07/20 07:03:33;;;;;;;0.10;0.10;;;22.20;99.90;;;;;;5026841;28;20609;-81
2023/07/20 07:05:59;;;;;;;0.10;0.10;;;22.30;99.90;;;;;;5025822;28;20614;-81
2023/07/20 07:08:24;;;;;;;0.10;0.10;;;22.20;99.90;;;;;;5026850;28;20190;-81
2023/07/20 07:10:50;;;;;;;0.10;0.10;;;22.20;99.90;;;;;;5026766;28;20260;-81
2023/07/20 07:13:16;;;;;;;0.10;0.10;;;21.70;99.90;;;;;;5017886;28;20191;-82
2023/07/20 07:15:42;;;;;;;0.10;0.10;;;22.00;99.90;;;;;;5016487;28;20187;-82
2023/07/20 07:18:08;;;;;;;0.10;0.10;;;21.80;99.90;;;;;;5026965;28;20195;-82
2023/07/20 07:20:33;;;;;;;0.10;0.10;;;21.90;99.90;;;;;;5022515;28;20642;-84
2023/07/20 07:22:59;;;;;;;0.10;0.10;;;21.90;99.90;;;;;;5019707;28;20194;-84
2023/07/20 07:25:24;;;;;;;0.10;0.10;;;21.80;99.90;;;;;;5020352;28;20273;-83
2023/07/20 07:27:52;;;;;;;0.10;0.10;;;22.00;99.90;;;;;;5023075;28;20193;-84
2023/07/20 07:30:17;;;;;;;0.10;0.10;;;21.70;99.90;;;;;;5018836;28;20958;-81
2023/07/20 07:32:43;;;;;;;0.10;0.10;;;21.20;99.90;;;;;;5016867;28;20183;-81
2023/07/20 07:35:09;;;;;;;0.10;0.10;;;21.00;99.90;;;;;;5029377;28;20671;-81
2023/07/20 07:37:35;;;;;;;0.10;0.10;;;21.30;99.90;;;;;;5026287;28;20215;-81
2023/07/20 07:40:00;;;;;;;0.10;0.10;;;21.70;99.90;;;;;;5021409;28;20198;-81
2023/07/20 07:42:26;;;;;;;0.10;0.10;;;22.50;99.90;;;;;;5021735;28;20214;-81
2023/07/20 07:44:51;;;;;;;0.10;0.10;;;23.00;99.90;;;;;;5018533;28;20241;-81
2023/07/20 07:47:17;;;;;;;0.10;0.10;;;23.10;99.90;;;;;;5020652;28;20210;-81
2023/07/20 07:49:43;;;;;;;0.10;0.10;;;23.50;99.90;;;;;;5026735;28;20690;-81
2023/07/20 07:52:08;;;;;;;0.10;0.10;;;23.50;99.90;;;;;;5020845;28;20668;-81
2023/07/20 07:54:34;;;;;;;0.10;0.10;;;23.40;99.90;;;;;;5024842;28;20446;-81
2023/07/20 07:56:59;;;;;;;0.10;0.10;;;23.40;99.90;;;;;;5024233;28;20678;-81
2023/07/20 07:59:25;;;;;;;0.10;0.10;;;23.50;99.90;;;;;;5025231;28;20709;-82
2023/07/20 08:01:50;;;;;;;0.10;0.10;;;23.50;99.90;;;;;;5022659;28;20206;-81
2023/07/20 08:04:16;;;;;;;15.40;13.60;;;23.50;99.90;;;;;;5020730;28;20731;-81
2023/07/20 08:06:41;;;;;;;0.10;0.10;;;23.30;99.90;;;;;;5023513;28;20198;-81
2023/07/20 08:09:08;;;;;;;0.10;0.10;;;23.20;99.90;;;;;;5029689;28;20226;-81
2023/07/20 08:11:33;;;;;;;0.10;0.10;;;23.10;99.90;;;;;;5029949;28;20293;-81
2023/07/20 08:14:02;;;;;;;0.10;0.10;;;23.20;99.90;;;;;;5028198;28;20281;-81
2023/07/20 08:16:28;;;;;;;0.10;0.10;;;22.80;99.90;;;;;;5026468;28;20214;-81
2023/07/20 08:18:53;;;;;;;0.10;0.10;;;22.70;99.90;;;;;;5027109;28;20224;-81
2023/07/20 08:21:19;;;;;;;0.10;0.10;;;22.10;99.90;;;;;;5024045;28;20198;-81
2023/07/20 08:23:44;;;;;;;0.10;0.10;;;21.60;99.90;;;;;;5030615;28;20204;-81
2023/07/20 08:26:10;;;;;;;0.10;0.10;;;21.70;99.90;;;;;;5033309;28;20191;-81
2023/07/20 08:28:35;;;;;;;0.10;0.10;;;22.00;99.90;;;;;;5026204;28;20217;-81
2023/07/20 08:31:02;;;;;;;0.10;0.10;;;22.60;99.90;;;;;;5024664;28;20209;-81
2023/07/20 08:33:29;;;;;;;0.10;0.10;;;23.10;99.90;;;;;;5023810;28;20216;-81
2023/07/20 08:35:56;;;;;;;0.10;0.10;;;23.50;99.90;;;;;;5028593;28;20174;-82
2023/07/20 08:38:21;;;;;;;0.10;0.10;;;23.60;99.90;;;;;;5021651;28;20269;-81
2023/07/20 08:40:47;;;;;;;0.10;0.10;;;23.70;99.90;;;;;;5027135;28;20281;-81
2023/07/20 08:43:16;;;;;;;0.10;0.10;;;23.80;99.90;;;;;;5028235;28;20190;-81
2023/07/20 08:45:44;;;;;;;0.10;0.10;;;23.60;99.90;;;;;;5018178;28;20198;-81
2023/07/20 08:48:11;;;;;;;0.10;0.10;;;23.60;99.90;;;;;;5025608;28;20179;-81
2023/07/20 08:50:37;;;;;;;0.10;0.10;;;23.50;99.90;;;;;;5026482;28;20707;-81
2023/07/20 08:53:03;;;;;;;0.10;0.10;;;23.60;99.90;;;;;;5032944;28;20308;-81
2023/07/20 08:55:30;;;;;;;0.10;0.10;;;23.60;99.90;;;;;;5032697;28;20655;-81
2023/07/20 08:57:57;;;;;;;0.10;0.10;;;23.50;99.90;;;;;;5032633;28;20224;-81
2023/07/20 09:00:24;;;;;;;0.10;0.10;;;23.50;99.90;;;;;;5034760;28;20717;-81
2023/07/20 09:02:53;;;;;;;0.10;0.10;;;23.90;99.90;;;;;;5027588;28;20542;-81
2023/07/20 09:05:20;;;;;;;0.10;0.10;;;24.10;99.90;;;;;;5026676;28;20279;-81
2023/07/20 09:07:46;;;;;;;0.10;0.10;;;24.10;99.90;;;;;;5031786;28;20189;-81
2023/07/20 09:10:12;;;;;;;0.10;0.10;;;24.50;99.90;;;;;;5035314;28;20210;-81
2023/07/20 09:12:39;;;;;;;0.10;0.10;;;24.60;99.90;;;;;;5025147;28;20194;-81
2023/07/20 09:15:06;;;;;;;0.10;0.10;;;24.70;99.90;;;;;;5027712;28;20905;-81
2023/07/20 09:17:32;;;;;;;0.10;0.10;;;25.10;99.90;;;;;;5018940;28;21420;-82
2023/07/20 09:19:57;;;;;;;0.10;0.10;;;25.40;99.90;;;;;;5026244;28;20198;-83
2023/07/20 09:22:30;;;;;;;0.10;0.10;;;25.50;99.90;;;;;;5021402;28;20220;-85
2023/07/20 09:24:57;;;;;;;0.10;0.10;;;25.30;99.90;;;;;;5024541;28;21259;-84
2023/07/20 09:27:29;;;;;;;0.10;0.10;;;24.70;99.90;;;;;;5022946;28;20193;-84
2023/07/20 09:29:56;;;;;;;0.10;0.10;;;23.80;99.90;;;;;;5024434;28;20210;-83
2023/07/20 09:32:22;;;;;;;5.33;4.93;;;24.00;99.90;;;;;;5034635;28;20206;-81
2023/07/20 09:34:49;;;;;;;0.10;0.10;;;24.10;99.90;;;;;;5032313;28;20167;-81
2023/07/20 09:37:23;;;;;;;0.10;0.10;;;24.20;99.90;;;;;;5031770;28;20632;-81
2023/07/20 09:39:51;;;;;;;0.10;0.10;;;24.60;99.90;;;;;;5024477;28;20187;-81
2023/07/20 09:42:16;;;;;;;0.10;0.10;;;24.80;99.90;;;;;;5026919;28;20232;-81
2023/07/20 09:44:45;;;;;;;0.10;0.10;;;24.90;99.90;;;;;;5029895;28;20270;-81
2023/07/20 09:47:11;;;;;;;0.10;0.10;;;24.90;99.90;;;;;;5026635;28;20564;-81
2023/07/20 09:49:40;;;;;;;0.10;0.10;;;24.80;99.90;;;;;;5026262;28;20214;-82
2023/07/20 09:52:08;;;;;;;0.10;0.10;;;25.10;99.90;;;;;;5021434;28;20303;-81
2023/07/20 09:54:33;;;;;;;0.10;0.10;;;25.30;99.90;;;;;;5030705;28;20671;-81
2023/07/20 09:57:01;;;;;;;0.10;0.10;;;25.80;99.90;;;;;;5030687;28;20191;-82
2023/07/20 09:59:26;;;;;;;0.10;0.10;;;26.00;99.90;;;;;;5030379;28;20218;-81
2023/07/20 10:01:56;;;;;;;0.10;0.10;;;26.30;99.90;;;;;;5031421;28;20214;-82
2023/07/20 10:04:23;;;;;;;0.10;0.10;;;26.70;99.90;;;;;;5022926;28;20194;-81
2023/07/20 10:06:52;;;;;;;0.10;0.10;;;26.30;99.90;;;;;;5028221;28;20224;-81
2023/07/20 10:09:18;;;;;;;0.10;0.10;;;26.40;99.90;;;;;;5024589;28;20220;-81
2023/07/20 10:11:50;;;;;;;0.10;0.10;;;26.20;99.90;;;;;;5026447;28;20210;-81
2023/07/20 10:14:20;;;;;;;0.10;0.10;;;25.40;99.90;;;;;;5026951;28;20542;-81
2023/07/20 10:16:56;;;;;;;0.10;0.10;;;25.00;99.90;;;;;;5025483;28;20182;-81
2023/07/20 10:19:33;;;;;;;0.10;0.10;;;25.00;99.90;;;;;;5026473;28;20187;-81
2023/07/20 10:22:12;;;;;;;0.10;0.10;;;24.90;99.90;;;;;;5027596;28;20552;-81
2023/07/20 10:24:39;;;;;;;0.10;0.10;;;24.90;99.90;;;;;;5030870;28;20194;-81
2023/07/20 10:27:05;;;;;;;0.10;0.10;;;24.90;99.90;;;;;;5035882;28;20274;-81
2023/07/20 10:29:32;;;;;;;0.10;0.10;;;24.90;99.90;;;;;;5032955;28;20602;-82
2023/07/20 10:31:58;;;;;;;0.10;0.10;;;25.00;99.90;;;;;;5034114;28;20206;-82
2023/07/20 10:34:26;;;;;;;0.10;0.10;;;25.20;99.90;;;;;;5028978;28;20186;-83
2023/07/20 10:36:52;;;;;;;0.10;0.10;;;25.50;99.90;;;;;;5031595;28;20232;-81
2023/07/20 10:39:28;;;;;;;0.10;0.10;;;25.80;99.90;;;;;;5027377;28;20186;-81
2023/07/20 10:42:07;;;;;;;0.10;0.10;;;26.10;99.90;;;;;;5034072;28;20234;-82
2023/07/20 10:44:33;;;;;;;0.10;0.10;;;26.20;99.90;;;;;;5025118;28;20189;-82
2023/07/20 10:47:05;;;;;;;0.10;0.10;;;26.40;99.90;;;;;;5029402;28;20281;-81
2023/07/20 10:49:33;;;;;;;0.10;0.10;;;26.60;99.90;;;;;;5025764;28;20198;-81
2023/07/20 10:52:00;;;;;;;0.10;0.10;;;26.30;99.90;;;;;;5023607;28;20210;-81
2023/07/20 10:54:25;;;;;;;0.10;0.10;;;26.30;99.90;;;;;;5030099;28;20236;-82
2023/07/20 10:56:51;;;;;;;0.10;0.10;;;25.80;99.90;;;;;;5026841;28;20653;-81
2023/07/20 10:59:23;;;;;;;0.10;0.10;;;25.80;99.90;;;;;;5019389;28;20199;-81
2023/07/20 11:01:50;;;;;;;0.10;0.10;;;25.80;99.90;;;;;;5026920;28;20259;-81
2023/07/20 11:04:18;;;;;;;0.10;0.10;;;25.90;99.90;;;;;;5032876;28;20295;-81
2023/07/20 11:06:44;;;;;;;0.27;0.27;;;25.90;99.90;;;;;;5029687;28;20289;-81
2023/07/20 11:09:14;;;;;;;0.10;0.10;;;26.00;99.90;;;;;;5025221;28;20215;-82
2023/07/20 11:11:41;;;;;;;0.10;0.10;;;26.20;99.90;;;;;;5028892;28;20241;-82
2023/07/20 11:14:22;;;;;;;0.10;0.10;;;26.40;99.90;;;;;;5026744;28;20195;-81
2023/07/20 11:16:48;;;;;;;0.10;0.10;;;26.80;99.90;;;;;;5024676;28;20186;-82
2023/07/20 11:19:19;;;;;;;0.10;0.10;;;26.90;99.90;;;;;;5021964;28;20265;-82
2023/07/20 11:21:49;;;;;;;0.10;0.10;;;27.10;99.90;;;;;;5024044;28;20215;-82
2023/07/20 11:24:15;;;;;;;0.10;0.10;;;27.40;99.90;;;;;;5023395;28;20182;-82
2023/07/20 11:26:42;;;;;;;0.10;0.10;;;27.50;99.90;;;;;;5030361;28;20209;-82
2023/07/20 11:29:07;;;;;;;0.10;0.10;;;27.80;99.90;;;;;;5031238;28;20255;-82
2023/07/20 11:31:41;;;;;;;0.10;0.10;;;27.80;99.90;;;;;;5028362;28;20644;-82
2023/07/20 11:34:11;;;;;;;0.10;0.10;;;28.00;99.90;;;;;;5035455;28;20174;-83
2023/07/20 11:36:38;;;;;;;0.10;0.10;;;27.60;99.90;;;;;;5027506;28;20244;-84
2023/07/20 11:39:04;;;;;;;0.10;0.10;;;25.70;99.90;;;;;;5017306;28;20201;-82
2023/07/20 11:41:32;;;;;;;0.10;0.10;;;25.20;99.90;;;;;;5018989;28;20206;-82
2023/07/20 11:43:57;;;;;;;0.10;0.10;;;24.30;99.90;;;;;;5028345;28;20236;-81
2023/07/20 11:46:23;;;;;;;0.10;0.10;;;23.90;99.90;;;;;;5026941;28;20195;-82
2023/07/20 11:48:49;;;;;;;0.10;0.10;;;24.10;99.90;;;;;;5032560;28;20263;-82
2023/07/20 11:51:17;;;;;;;0.10;0.10;;;24.30;99.90;;;;;;5028610;28;20281;-82
2023/07/20 11:53:46;;;;;;;0.10;0.10;;;24.80;99.90;;;;;;5032983;28;20194;-82
2023/07/20 11:56:12;;;;;;;0.10;0.10;;;24.40;99.90;;;;;;5028933;28;20217;-82
2023/07/20 11:58:42;;;;;;;0.10;0.10;;;23.90;99.90;;;;;;5028944;28;20190;-82
2023/07/20 12:01:10;;;;;;;0.10;0.10;;;24.00;99.90;;;;;;5031765;28;20226;-82
2023/07/20 12:03:35;;;;;;;0.10;0.10;;;23.70;99.90;;;;;;5024942;28;20182;-82
2023/07/20 12:06:08;;;;;;;0.10;0.10;;;23.60;99.90;;;;;;5029616;28;20202;-81
2023/07/20 12:08:34;;;;;;;0.10;0.10;;;23.70;99.90;;;;;;5031961;28;20178;-81
2023/07/20 12:11:00;;;;;;;0.10;0.10;;;23.20;99.90;;;;;;5028424;28;20761;-81
2023/07/20 12:13:36;;;;;;;0.10;0.10;;;23.40;99.90;;;;;;5029330;28;20182;-82
2023/07/20 12:16:15;;;;;;;0.53;0.53;;;24.00;99.90;;;;;;5027852;28;20201;-82
2023/07/20 12:18:44;;;;;;;0.10;0.10;;;24.30;99.90;;;;;;5021836;28;20189;-82
2023/07/20 12:21:10;;;;;;;0.10;0.10;;;24.80;99.90;;;;;;5024697;28;20286;-81
2023/07/20 12:23:38;;;;;;;0.10;0.10;;;25.40;99.90;;;;;;5028513;28;20182;-82
2023/07/20 12:26:06;;;;;;;0.10;0.10;;;26.30;99.90;;;;;;5026112;28;20209;-82
2023/07/20 12:28:32;;;;;;;0.10;0.10;;;26.80;99.90;;;;;;5027800;28;20190;-82
2023/07/20 12:30:57;;;;;;;0.10;0.10;;;27.40;99.90;;;;;;5027690;28;20281;-82
2023/07/20 12:33:23;;;;;;;0.10;0.10;;;27.80;99.90;;;;;;5027852;28;20270;-82
2023/07/20 12:35:55;;;;;;;0.10;0.10;;;27.80;99.90;;;;;;5026500;28;20258;-82
2023/07/20 12:38:21;;;;;;;0.10;0.10;;;27.10;99.90;;;;;;5026709;28;20196;-82
2023/07/20 12:40:47;;;;;;;0.10;0.10;;;26.30;99.90;;;;;;5024039;28;20222;-82
2023/07/20 12:43:13;;;;;;;0.10;0.10;;;27.30;99.90;;;;;;5025865;28;20194;-82
2023/07/20 12:45:38;;;;;;;0.10;0.10;;;27.20;99.90;;;;;;5027410;28;20189;-82
2023/07/20 12:48:04;;;;;;;0.10;0.10;;;27.90;99.90;;;;;;5028429;28;20198;-82